createdAt,value
2023-02-05T00:06:03.141Z,-1.85
2023-02-05T00:08:35.028Z,-1.84
2023-02-05T00:14:08.608Z,-1.72
2023-02-05T00:19:42.846Z,-1.38
2023-02-05T00:25:26.151Z,-1.26
2023-02-05T00:27:55.349Z,-1.30
2023-02-05T00:30:46.500Z,-1.22
2023-02-05T00:38:50.861Z,-1.02
2023-02-05T00:41:21.336Z,-1.18
2023-02-05T00:43:49.707Z,-1.15
2023-02-05T00:46:24.206Z,-1.05
2023-02-05T00:54:21.117Z,-1.20
2023-02-05T00:56:55.022Z,-1.11
2023-02-05T00:59:28.231Z,-1.04
2023-02-05T01:02:00.133Z,-0.96
2023-02-05T01:04:33.644Z,-0.96
2023-02-05T01:07:04.278Z,-0.89
2023-02-05T01:09:35.781Z,-0.84
2023-02-05T01:12:05.802Z,-0.74
2023-02-05T01:14:35.957Z,-0.69
2023-02-05T01:17:06.456Z,-0.54
2023-02-05T01:19:37.733Z,-0.56
2023-02-05T01:22:06.983Z,-0.62
2023-02-05T01:24:40.861Z,-0.59
2023-02-05T01:27:13.284Z,-0.53
2023-02-05T01:29:55.841Z,-0.54
2023-02-05T01:35:11.242Z,-0.47
2023-02-05T01:37:39.806Z,-0.41
2023-02-05T01:40:16.133Z,-0.42
2023-02-05T01:42:47.348Z,-0.44
2023-02-05T01:45:24.397Z,-0.36
2023-02-05T01:47:59.338Z,-0.32
2023-02-05T01:50:52.723Z,-0.28
2023-02-05T01:53:28.420Z,-0.19
2023-02-05T01:56:03.291Z,-0.24
2023-02-05T01:58:40.897Z,-0.08
2023-02-05T02:10:49.378Z,-0.31
2023-02-05T02:13:22.352Z,-0.24
2023-02-05T02:16:01.772Z,-0.23
2023-02-05T02:18:44.129Z,-0.12
2023-02-05T02:27:47.603Z,0.04
2023-02-05T02:30:33.871Z,-0.05
2023-02-05T02:33:24.640Z,-0.12
2023-02-05T02:35:58.827Z,-0.18
2023-02-05T02:38:35.755Z,-0.11
2023-02-05T02:41:32.330Z,-0.08
2023-02-05T02:44:14.957Z,-0.26
2023-02-05T02:46:49.698Z,-0.28
2023-02-05T02:49:31.213Z,-0.32
2023-02-05T02:52:02.320Z,-0.39
2023-02-05T02:54:34.997Z,-0.24
2023-02-05T02:57:08.971Z,-0.21
2023-02-05T02:59:40.383Z,-0.24
2023-02-05T03:02:12.762Z,-0.15
2023-02-05T03:04:46.063Z,-0.15
2023-02-05T03:07:20.747Z,-0.10
2023-02-05T03:10:04.898Z,-0.28
2023-02-05T03:12:36.579Z,-0.48
2023-02-05T03:15:06.279Z,-0.45
2023-02-05T03:17:35.174Z,-0.27
2023-02-05T03:20:21.335Z,-0.44
2023-02-05T03:22:49.088Z,-0.58
2023-02-05T03:25:22.025Z,-0.52
2023-02-05T03:27:53.837Z,-0.51
2023-02-05T03:30:27.621Z,-0.56
2023-02-05T03:33:27.920Z,-0.63
2023-02-05T03:40:04.860Z,-0.60
2023-02-05T03:42:58.616Z,-0.59
2023-02-05T03:49:04.795Z,-0.39
2023-02-05T03:52:04.960Z,-0.54
2023-02-05T03:54:49.554Z,-0.32
2023-02-05T03:57:29.068Z,-0.39
2023-02-05T04:00:01.134Z,-0.53
2023-02-05T04:02:32.790Z,-0.52
2023-02-05T04:05:08.260Z,-0.52
2023-02-05T04:07:54.685Z,-0.47
2023-02-05T04:19:44.060Z,-0.56
2023-02-05T04:22:11.796Z,-0.59
2023-02-05T04:24:44.643Z,-0.51
2023-02-05T04:27:12.584Z,-0.31
2023-02-05T04:29:40.425Z,-0.27
2023-02-05T04:32:08.252Z,-0.25
2023-02-05T04:34:36.144Z,-0.38
2023-02-05T04:37:04.141Z,-0.40
2023-02-05T04:39:32.343Z,-0.46
2023-02-05T04:42:02.150Z,-0.40
2023-02-05T04:44:30.092Z,-0.52
2023-02-05T04:46:58.942Z,-0.49
2023-02-05T04:52:29.751Z,-0.48
2023-02-05T04:54:59.151Z,-0.52
2023-02-05T04:57:32.486Z,-0.62
2023-02-05T05:00:01.219Z,-0.59
2023-02-05T05:02:31.945Z,-0.64
2023-02-05T05:05:01.014Z,-0.71
2023-02-05T05:07:35.931Z,-0.66
2023-02-05T05:10:11.776Z,-0.56
2023-02-05T05:12:43.553Z,-0.51
2023-02-05T05:18:09.690Z,-0.56
2023-02-05T05:20:42.445Z,-0.46
2023-02-05T05:23:17.669Z,-0.45
2023-02-05T05:25:50.503Z,-0.34
2023-02-05T05:28:31.559Z,-0.26
2023-02-05T05:31:18.143Z,-0.27
2023-02-05T05:33:58.006Z,-0.26
2023-02-05T05:36:29.949Z,-0.23
2023-02-05T05:39:22.075Z,-0.16
2023-02-05T05:45:08.490Z,-0.23
2023-02-05T05:47:48.321Z,-0.23
2023-02-05T05:50:22.490Z,-0.06
2023-02-05T05:53:00.460Z,-0.04
2023-02-05T05:55:31.828Z,0.05
2023-02-05T05:58:02.112Z,0.14
2023-02-05T06:03:29.349Z,0.18
2023-02-05T06:06:15.692Z,0.19
2023-02-05T06:11:42.925Z,0.40
2023-02-05T06:14:13.030Z,0.46
2023-02-05T06:16:46.720Z,0.58
2023-02-05T06:19:14.750Z,0.40
2023-02-05T06:21:42.733Z,0.50
2023-02-05T06:24:10.487Z,0.64
2023-02-05T06:26:38.303Z,0.76
2023-02-05T06:29:09.657Z,0.84
2023-02-05T06:31:37.355Z,0.84
2023-02-05T06:34:07.468Z,0.88
2023-02-05T06:36:36.871Z,1.00
2023-02-05T06:39:06.246Z,1.14
2023-02-05T06:41:34.599Z,1.10
2023-02-05T06:44:08.328Z,1.25
2023-02-05T06:46:36.996Z,1.35
2023-02-05T06:49:05.930Z,1.34
2023-02-05T06:51:37.340Z,1.52
2023-02-05T06:54:05.131Z,1.47
2023-02-05T06:56:33.618Z,1.39
2023-02-05T06:59:02.143Z,1.57
2023-02-05T07:01:30.692Z,1.61
2023-02-05T07:03:58.783Z,1.74
2023-02-05T07:06:26.977Z,1.92
2023-02-05T07:08:56.517Z,1.86
2023-02-05T07:11:24.722Z,2.01
2023-02-05T07:13:52.755Z,2.10
2023-02-05T07:56:29.227Z,3.45
2023-02-05T08:04:57.763Z,3.22
2023-02-05T08:07:27.000Z,3.39
2023-02-05T08:09:58.384Z,3.07
2023-02-05T08:18:19.384Z,2.73
2023-02-05T08:20:51.765Z,2.92
2023-02-05T08:23:20.571Z,2.83
2023-02-05T08:25:49.170Z,2.93
2023-02-05T08:28:17.637Z,2.97
2023-02-05T08:30:46.194Z,3.05
2023-02-05T08:33:14.481Z,3.00
2023-02-05T08:35:42.953Z,3.36
2023-02-05T08:38:12.624Z,3.33
2023-02-05T08:40:40.744Z,3.58
2023-02-05T08:43:08.846Z,3.50
2023-02-05T08:45:37.240Z,3.83
2023-02-05T08:48:05.686Z,3.83
2023-02-05T08:50:33.925Z,3.92
2023-02-05T09:17:42.060Z,4.77
2023-02-05T09:20:10.945Z,4.91
2023-02-05T09:22:39.436Z,4.59
2023-02-05T09:25:08.277Z,4.43
2023-02-05T09:27:36.541Z,4.19
2023-02-05T11:07:58.918Z,3.13
2023-02-05T11:10:29.491Z,3.06
2023-02-05T11:13:18.187Z,2.95
2023-02-05T11:15:55.460Z,2.90
2023-02-05T11:18:28.122Z,3.02
2023-02-05T11:20:59.784Z,2.94
2023-02-05T11:23:39.472Z,2.84
2023-02-05T11:26:16.638Z,2.80
2023-02-05T11:38:46.134Z,2.92
2023-02-05T11:41:26.802Z,3.09
2023-02-05T11:43:56.525Z,3.00
2023-02-05T12:24:00.178Z,2.94
2023-02-05T12:26:35.217Z,2.93
2023-02-05T12:40:02.088Z,2.58
2023-02-05T12:43:06.403Z,2.27
2023-02-05T12:45:49.795Z,2.24
2023-02-05T12:48:42.516Z,2.00
2023-02-05T12:57:59.795Z,2.10
2023-02-05T13:00:49.144Z,1.77
2023-02-05T13:17:49.076Z,1.74
2023-02-05T13:20:56.471Z,1.50
2023-02-05T13:23:43.341Z,1.29
2023-02-05T13:26:24.851Z,1.64
2023-02-05T13:29:07.955Z,1.47
2023-02-05T13:31:40.345Z,1.54
2023-02-05T13:34:10.739Z,1.71
2023-02-05T13:36:53.645Z,1.70
2023-02-05T13:39:46.026Z,1.68
2023-02-05T13:42:29.619Z,1.57
2023-02-05T13:45:20.942Z,1.73
2023-02-05T13:48:18.606Z,1.90
2023-02-05T13:51:20.640Z,1.93
2023-02-05T13:54:12.843Z,1.78
2023-02-05T14:14:18.099Z,1.59
2023-02-05T14:16:50.054Z,1.59
2023-02-05T14:19:23.226Z,1.32
2023-02-05T14:22:10.240Z,1.32
2023-02-05T14:24:41.624Z,1.08
2023-02-05T14:27:29.266Z,1.09
2023-02-05T14:29:59.880Z,1.21
2023-02-05T14:32:27.649Z,1.47
2023-02-05T14:35:27.442Z,1.36
2023-02-05T14:38:03.377Z,1.33
2023-02-05T14:40:35.973Z,1.21
2023-02-05T14:43:31.483Z,0.90
2023-02-05T14:46:06.888Z,0.95
2023-02-05T14:48:46.924Z,0.97
2023-02-05T14:51:26.000Z,0.90
2023-02-05T14:54:00.633Z,0.84
2023-02-05T14:56:37.873Z,0.87
2023-02-05T14:59:30.172Z,0.79
2023-02-05T15:02:00.190Z,0.64
2023-02-05T15:04:34.361Z,0.67
2023-02-05T15:07:15.135Z,0.64
2023-02-05T15:09:46.271Z,0.61
2023-02-05T15:12:54.179Z,0.82
2023-02-05T15:15:42.566Z,0.85
2023-02-05T15:21:53.714Z,0.79
2023-02-05T15:39:41.376Z,0.70
2023-02-05T15:42:15.941Z,0.82
2023-02-05T15:44:43.955Z,0.78
2023-02-05T15:51:11.021Z,0.70
2023-02-05T15:56:44.692Z,0.66
2023-02-05T15:59:42.177Z,0.66
2023-02-05T16:15:14.081Z,0.49
2023-02-05T16:18:05.424Z,0.65
2023-02-05T16:20:45.745Z,0.30
2023-02-05T16:33:11.476Z,0.40
2023-02-05T16:35:46.710Z,0.41
2023-02-05T16:38:21.664Z,0.29
2023-02-05T16:44:31.192Z,0.40
2023-02-05T17:06:21.858Z,0.24
2023-02-05T17:09:00.081Z,0.35
2023-02-05T17:25:21.193Z,0.40
2023-02-05T17:27:49.885Z,0.37
2023-02-05T17:30:19.259Z,0.36
2023-02-05T17:32:50.795Z,0.33
2023-02-05T17:35:27.246Z,0.46
2023-02-05T17:37:55.275Z,0.18
2023-02-05T17:40:23.860Z,0.35
2023-02-05T17:42:52.785Z,0.38
2023-02-05T17:45:24.752Z,0.57
2023-02-05T17:47:53.659Z,0.54
2023-02-05T17:50:22.199Z,0.59
2023-02-05T17:52:52.494Z,0.54
2023-02-05T17:55:22.033Z,0.68
2023-02-05T17:57:50.433Z,0.39
2023-02-05T18:00:24.292Z,0.52
2023-02-05T18:03:12.841Z,0.38
2023-02-05T18:06:15.796Z,0.51
2023-02-05T18:11:31.477Z,0.53
2023-02-05T18:14:24.147Z,0.53
2023-02-05T18:16:59.241Z,0.56
2023-02-05T18:19:29.915Z,0.66
2023-02-05T18:25:02.514Z,0.46
2023-02-05T18:27:31.661Z,0.55
2023-02-05T18:30:01.067Z,0.41
2023-02-05T18:32:30.436Z,0.55
2023-02-05T18:34:59.441Z,0.41
2023-02-05T18:40:15.347Z,0.45
2023-02-05T18:42:48.280Z,0.42
2023-02-05T18:45:16.732Z,0.61
2023-02-05T18:47:45.133Z,0.57
2023-02-05T18:50:13.204Z,0.58
2023-02-05T18:52:41.052Z,0.69
2023-02-05T18:55:09.427Z,0.57
2023-02-05T18:57:37.324Z,0.56
2023-02-05T19:00:06.760Z,0.52
2023-02-05T19:02:37.910Z,0.57
2023-02-05T19:05:07.097Z,0.67
2023-02-05T19:07:39.446Z,0.51
2023-02-05T19:10:11.864Z,0.69
2023-02-05T19:12:39.958Z,0.69
2023-02-05T19:15:09.395Z,0.47
2023-02-05T19:17:37.770Z,0.48
2023-02-05T19:20:06.808Z,0.66
2023-02-05T19:22:35.448Z,0.61
2023-02-05T19:25:03.337Z,0.75
2023-02-05T19:27:34.030Z,0.76
2023-02-05T19:30:04.500Z,0.65
2023-02-05T19:32:36.035Z,0.83
2023-02-05T19:35:06.925Z,0.90
2023-02-05T19:40:22.430Z,0.88
2023-02-05T19:42:51.514Z,0.91
2023-02-05T19:45:29.401Z,0.84
2023-02-05T19:47:58.591Z,0.99
2023-02-05T19:50:29.282Z,1.05
2023-02-05T19:59:11.236Z,0.85
2023-02-05T20:01:43.949Z,0.96
2023-02-05T20:13:47.103Z,0.84
2023-02-05T20:19:29.460Z,0.96
2023-02-05T20:21:57.463Z,0.68
2023-02-05T20:24:26.096Z,1.02
2023-02-05T20:33:18.618Z,0.73
2023-02-05T20:35:47.597Z,0.88
2023-02-05T20:38:19.073Z,0.80
2023-02-05T20:40:47.959Z,0.94
2023-02-05T20:43:15.885Z,1.02
2023-02-05T20:45:43.952Z,1.00
2023-02-05T20:48:22.842Z,0.98
2023-02-05T20:51:24.780Z,0.91
2023-02-05T20:56:59.542Z,0.98
2023-02-05T21:08:12.943Z,1.10
2023-02-05T21:10:41.441Z,1.12
2023-02-05T21:13:13.872Z,1.07
2023-02-05T21:18:52.760Z,0.96
2023-02-05T21:21:36.602Z,1.04
2023-02-05T21:24:18.980Z,1.17
2023-02-05T21:26:49.129Z,1.06
2023-02-05T21:29:20.770Z,1.04
2023-02-05T21:31:53.283Z,1.08
2023-02-05T21:37:31.191Z,1.16
2023-02-05T21:40:08.968Z,1.02
2023-02-05T21:42:37.481Z,1.26
2023-02-05T21:45:06.372Z,1.18
2023-02-05T21:47:35.712Z,1.20
2023-02-05T21:52:55.484Z,1.12
2023-02-05T21:55:32.093Z,1.04
2023-02-05T21:58:02.999Z,1.05
2023-02-05T22:00:39.794Z,1.08
2023-02-05T22:03:09.749Z,1.11
2023-02-05T22:05:39.560Z,0.99
2023-02-05T22:08:11.747Z,1.04
2023-02-05T22:10:42.185Z,0.97
2023-02-05T22:13:10.006Z,1.25
2023-02-05T22:15:38.263Z,1.10
2023-02-05T22:18:06.548Z,1.16
2023-02-05T22:20:34.411Z,0.92
2023-02-05T22:23:02.326Z,1.04
2023-02-05T22:25:35.450Z,1.06
2023-02-05T22:28:16.091Z,1.00
2023-02-05T22:34:01.094Z,0.93
2023-02-05T22:36:36.122Z,1.05
2023-02-05T22:39:20.174Z,1.15
2023-02-05T22:41:58.644Z,1.18
2023-02-05T22:44:26.522Z,1.05
2023-02-05T22:46:54.586Z,1.07
2023-02-05T22:49:22.523Z,1.01
2023-02-05T22:51:52.447Z,0.99
2023-02-05T22:54:20.458Z,1.03
2023-02-05T22:56:48.893Z,0.79
2023-02-05T22:59:16.743Z,0.95
2023-02-05T23:01:46.560Z,0.85
2023-02-05T23:04:18.696Z,1.00
2023-02-05T23:06:57.392Z,0.95
2023-02-05T23:09:25.754Z,1.10
2023-02-05T23:11:56.848Z,1.14
2023-02-05T23:14:26.420Z,1.00
2023-02-05T23:16:57.634Z,0.90
2023-02-05T23:19:33.037Z,0.92
2023-02-05T23:22:02.470Z,0.87
2023-02-05T23:24:38.638Z,0.94
2023-02-05T23:27:09.544Z,0.75
2023-02-05T23:29:38.909Z,0.84
2023-02-05T23:32:13.577Z,0.73
2023-02-05T23:34:42.486Z,0.72
2023-02-05T23:37:12.509Z,0.75
2023-02-05T23:39:41.666Z,0.69
2023-02-05T23:42:11.089Z,0.71
2023-02-05T23:44:38.950Z,0.74
2023-02-05T23:47:06.905Z,0.66
2023-02-05T23:49:35.625Z,0.60
2023-02-05T23:52:04.585Z,0.74
2023-02-05T23:54:37.629Z,0.74
2023-02-05T23:57:07.848Z,0.74
2023-02-05T23:59:37.251Z,0.56
